sensor_id;sensor_type;location;lat;lon;timestamp;pressure;altitude;pressure_sealevel;temperature;humidity
46778;BME280;32536;47.128;8.746;2023-03-18T00:01:01;91372.28;;;10.84;54.01
46778;BME280;32536;47.128;8.746;2023-03-18T00:03:30;91367.25;;;10.86;53.83
46778;BME280;32536;47.128;8.746;2023-03-18T00:06:06;91371.91;;;10.82;53.01
46778;BME280;32536;47.128;8.746;2023-03-18T00:08:42;91386.09;;;10.83;53.97
46778;BME280;32536;47.128;8.746;2023-03-18T00:11:10;91375.31;;;10.86;53.58
46778;BME280;32536;47.128;8.746;2023-03-18T00:13:39;91374.47;;;10.89;53.47
46778;BME280;32536;47.128;8.746;2023-03-18T00:16:08;91374.88;;;10.88;53.24
46778;BME280;32536;47.128;8.746;2023-03-18T00:18:36;91376.41;;;10.89;54.08
46778;BME280;32536;47.128;8.746;2023-03-18T00:21:05;91378.25;;;10.92;53.67
46778;BME280;32536;47.128;8.746;2023-03-18T00:23:33;91374.75;;;10.95;53.71
46778;BME280;32536;47.128;8.746;2023-03-18T00:26:01;91387.44;;;10.91;52.47
46778;BME280;32536;47.128;8.746;2023-03-18T00:28:29;91381.41;;;10.87;53.13
46778;BME280;32536;47.128;8.746;2023-03-18T00:31:03;91385.00;;;10.80;52.01
46778;BME280;32536;47.128;8.746;2023-03-18T00:33:39;91396.09;;;10.79;52.92
46778;BME280;32536;47.128;8.746;2023-03-18T00:36:11;91396.53;;;10.77;52.98
46778;BME280;32536;47.128;8.746;2023-03-18T00:38:40;91399.31;;;10.70;53.68
46778;BME280;32536;47.128;8.746;2023-03-18T00:41:08;91394.09;;;10.63;53.86
46778;BME280;32536;47.128;8.746;2023-03-18T00:43:43;91395.38;;;10.54;53.43
46778;BME280;32536;47.128;8.746;2023-03-18T00:46:13;91387.81;;;10.49;54.40
46778;BME280;32536;47.128;8.746;2023-03-18T00:48:43;91392.50;;;10.45;54.35
46778;BME280;32536;47.128;8.746;2023-03-18T00:51:12;91395.22;;;10.41;54.20
46778;BME280;32536;47.128;8.746;2023-03-18T00:53:43;91387.63;;;10.40;54.31
46778;BME280;32536;47.128;8.746;2023-03-18T00:56:14;91391.78;;;10.41;54.31
46778;BME280;32536;47.128;8.746;2023-03-18T00:58:44;91390.16;;;10.47;54.41
46778;BME280;32536;47.128;8.746;2023-03-18T01:01:12;91389.75;;;10.49;54.17
46778;BME280;32536;47.128;8.746;2023-03-18T01:03:40;91395.78;;;10.53;54.11
46778;BME280;32536;47.128;8.746;2023-03-18T01:06:12;91393.81;;;10.57;53.42
46778;BME280;32536;47.128;8.746;2023-03-18T01:08:42;91385.31;;;10.62;54.43
46778;BME280;32536;47.128;8.746;2023-03-18T01:11:10;91382.28;;;10.60;54.24
46778;BME280;32536;47.128;8.746;2023-03-18T01:13:37;91377.28;;;10.62;54.20
46778;BME280;32536;47.128;8.746;2023-03-18T01:16:06;91380.75;;;10.59;54.12
46778;BME280;32536;47.128;8.746;2023-03-18T01:18:34;91380.75;;;10.59;54.58
46778;BME280;32536;47.128;8.746;2023-03-18T01:21:03;91378.78;;;10.63;53.56
46778;BME280;32536;47.128;8.746;2023-03-18T01:23:30;91377.28;;;10.62;54.25
46778;BME280;32536;47.128;8.746;2023-03-18T01:25:57;91375.00;;;10.61;54.06
46778;BME280;32536;47.128;8.746;2023-03-18T01:28:24;91370.03;;;10.59;53.63
46778;BME280;32536;47.128;8.746;2023-03-18T01:30:52;91370.81;;;10.60;53.73
46778;BME280;32536;47.128;8.746;2023-03-18T01:33:20;91369.38;;;10.55;53.51
46778;BME280;32536;47.128;8.746;2023-03-18T01:35:58;91367.22;;;10.46;53.55
46778;BME280;32536;47.128;8.746;2023-03-18T01:38:27;91368.38;;;10.45;54.09
46778;BME280;32536;47.128;8.746;2023-03-18T01:40:56;91370.22;;;10.48;54.31
46778;BME280;32536;47.128;8.746;2023-03-18T01:43:26;91356.50;;;10.46;54.45
46778;BME280;32536;47.128;8.746;2023-03-18T01:45:56;91357.69;;;10.45;53.81
46778;BME280;32536;47.128;8.746;2023-03-18T01:48:30;91362.38;;;10.37;54.46
46778;BME280;32536;47.128;8.746;2023-03-18T01:51:03;91354.06;;;10.32;54.38
46778;BME280;32536;47.128;8.746;2023-03-18T01:53:39;91364.75;;;10.32;54.19
46778;BME280;32536;47.128;8.746;2023-03-18T01:56:07;91361.63;;;10.37;54.49
46778;BME280;32536;47.128;8.746;2023-03-18T01:58:41;91348.53;;;10.43;53.44
46778;BME280;32536;47.128;8.746;2023-03-18T02:03:45;91357.06;;;10.57;54.25
46778;BME280;32536;47.128;8.746;2023-03-18T02:06:13;91366.56;;;10.62;54.16
46778;BME280;32536;47.128;8.746;2023-03-18T02:08:40;91359.75;;;10.57;53.87
46778;BME280;32536;47.128;8.746;2023-03-18T02:11:08;91360.97;;;10.53;53.98
46778;BME280;32536;47.128;8.746;2023-03-18T02:13:38;91361.81;;;10.50;54.50
46778;BME280;32536;47.128;8.746;2023-03-18T02:16:13;91357.63;;;10.49;53.50
46778;BME280;32536;47.128;8.746;2023-03-18T02:18:53;91355.00;;;10.45;53.30
46778;BME280;32536;47.128;8.746;2023-03-18T02:27:15;91352.06;;;10.36;49.94
46778;BME280;32536;47.128;8.746;2023-03-18T02:29:45;91353.59;;;10.37;54.43
46778;BME280;32536;47.128;8.746;2023-03-18T02:32:14;91339.47;;;10.36;54.29
46778;BME280;32536;47.128;8.746;2023-03-18T02:34:42;91340.25;;;10.33;54.17
46778;BME280;32536;47.128;8.746;2023-03-18T02:37:09;91345.25;;;10.31;53.85
46778;BME280;32536;47.128;8.746;2023-03-18T02:39:36;91341.09;;;10.30;53.64
46778;BME280;32536;47.128;8.746;2023-03-18T02:42:03;91344.56;;;10.27;53.88
46778;BME280;32536;47.128;8.746;2023-03-18T02:44:32;91339.69;;;10.22;54.42
46778;BME280;32536;47.128;8.746;2023-03-18T02:47:08;91339.75;;;10.18;53.98
46778;BME280;32536;47.128;8.746;2023-03-18T02:49:37;91334.03;;;10.16;54.53
46778;BME280;32536;47.128;8.746;2023-03-18T02:52:04;91336.03;;;10.12;54.58
46778;BME280;32536;47.128;8.746;2023-03-18T02:54:31;91344.06;;;10.12;54.72
46778;BME280;32536;47.128;8.746;2023-03-18T02:56:58;91353.94;;;10.15;55.13
46778;BME280;32536;47.128;8.746;2023-03-18T02:59:26;91345.44;;;10.20;54.44
46778;BME280;32536;47.128;8.746;2023-03-18T03:01:54;91339.28;;;10.23;54.72
46778;BME280;32536;47.128;8.746;2023-03-18T03:04:22;91347.72;;;10.22;54.98
46778;BME280;32536;47.128;8.746;2023-03-18T03:06:54;91352.66;;;10.23;54.81
46778;BME280;32536;47.128;8.746;2023-03-18T03:09:26;91346.88;;;10.25;54.80
46778;BME280;32536;47.128;8.746;2023-03-18T03:11:53;91335.78;;;10.27;54.27
46778;BME280;32536;47.128;8.746;2023-03-18T03:14:20;91347.59;;;10.29;54.67
46778;BME280;32536;47.128;8.746;2023-03-18T03:16:47;91348.28;;;10.33;54.65
46778;BME280;32536;47.128;8.746;2023-03-18T03:19:14;91344.41;;;10.38;54.75
46778;BME280;32536;47.128;8.746;2023-03-18T03:21:41;91336.75;;;10.40;53.52
46778;BME280;32536;47.128;8.746;2023-03-18T03:24:08;91340.22;;;10.37;54.02
46778;BME280;32536;47.128;8.746;2023-03-18T03:26:35;91347.53;;;10.33;53.94
46778;BME280;32536;47.128;8.746;2023-03-18T03:29:03;91345.66;;;10.30;54.17
46778;BME280;32536;47.128;8.746;2023-03-18T03:31:32;91354.88;;;10.29;54.75
46778;BME280;32536;47.128;8.746;2023-03-18T03:33:59;91341.94;;;10.23;54.24
46778;BME280;32536;47.128;8.746;2023-03-18T03:36:27;91348.09;;;10.20;54.75
46778;BME280;32536;47.128;8.746;2023-03-18T03:38:54;91350.09;;;10.16;54.60
46778;BME280;32536;47.128;8.746;2023-03-18T03:41:21;91347.13;;;10.10;54.44
46778;BME280;32536;47.128;8.746;2023-03-18T03:43:48;91344.88;;;10.09;54.89
46778;BME280;32536;47.128;8.746;2023-03-18T03:46:15;91348.66;;;10.12;54.39
46778;BME280;32536;47.128;8.746;2023-03-18T03:48:42;91350.88;;;10.17;54.74
46778;BME280;32536;47.128;8.746;2023-03-18T03:51:08;91352.72;;;10.20;54.64
46778;BME280;32536;47.128;8.746;2023-03-18T03:53:35;91354.19;;;10.24;54.50
46778;BME280;32536;47.128;8.746;2023-03-18T03:56:03;91364.81;;;10.28;54.01
46778;BME280;32536;47.128;8.746;2023-03-18T03:58:30;91359.94;;;10.23;54.22
46778;BME280;32536;47.128;8.746;2023-03-18T04:00:56;91356.97;;;10.17;54.09
46778;BME280;32536;47.128;8.746;2023-03-18T04:03:24;91365.41;;;10.16;54.57
46778;BME280;32536;47.128;8.746;2023-03-18T04:05:51;91363.59;;;10.09;54.64
46778;BME280;32536;47.128;8.746;2023-03-18T04:08:18;91359.41;;;10.08;54.72
46778;BME280;32536;47.128;8.746;2023-03-18T04:10:45;91357.09;;;10.10;54.18
46778;BME280;32536;47.128;8.746;2023-03-18T04:13:12;91360.88;;;10.13;54.79
46778;BME280;32536;47.128;8.746;2023-03-18T04:15:39;91367.00;;;10.13;54.43
46778;BME280;32536;47.128;8.746;2023-03-18T04:18:06;91365.47;;;10.12;54.86
46778;BME280;32536;47.128;8.746;2023-03-18T04:20:34;91363.53;;;10.13;54.92
46778;BME280;32536;47.128;8.746;2023-03-18T04:23:02;91367.69;;;10.17;54.54
46778;BME280;32536;47.128;8.746;2023-03-18T04:25:29;91363.50;;;10.16;54.21
46778;BME280;32536;47.128;8.746;2023-03-18T04:27:56;91364.69;;;10.12;54.78
46778;BME280;32536;47.128;8.746;2023-03-18T04:30:23;91367.78;;;10.10;54.81
46778;BME280;32536;47.128;8.746;2023-03-18T04:33:00;91370.88;;;10.08;52.87
46778;BME280;32536;47.128;8.746;2023-03-18T04:35:28;91371.63;;;10.09;54.69
46778;BME280;32536;47.128;8.746;2023-03-18T04:37:54;91369.44;;;10.04;54.33
46778;BME280;32536;47.128;8.746;2023-03-18T04:40:21;91360.75;;;9.96;54.59
46778;BME280;32536;47.128;8.746;2023-03-18T04:42:48;91371.56;;;9.89;54.85
46778;BME280;32536;47.128;8.746;2023-03-18T04:45:16;91376.56;;;9.87;55.08
46778;BME280;32536;47.128;8.746;2023-03-18T04:47:43;91371.56;;;9.89;55.01
46778;BME280;32536;47.128;8.746;2023-03-18T04:50:12;91369.28;;;9.87;54.50
46778;BME280;32536;47.128;8.746;2023-03-18T04:52:40;91365.44;;;9.88;54.56
46778;BME280;32536;47.128;8.746;2023-03-18T04:55:07;91366.66;;;9.84;53.87
46778;BME280;32536;47.128;8.746;2023-03-18T04:57:35;91367.44;;;9.84;54.32
46778;BME280;32536;47.128;8.746;2023-03-18T05:00:06;91371.63;;;9.85;54.14
46778;BME280;32536;47.128;8.746;2023-03-18T05:02:37;91367.44;;;9.84;54.07
46778;BME280;32536;47.128;8.746;2023-03-18T05:05:04;91358.69;;;9.80;54.66
46778;BME280;32536;47.128;8.746;2023-03-18T05:07:32;91364.13;;;9.76;54.60
46778;BME280;32536;47.128;8.746;2023-03-18T05:09:59;91358.41;;;9.74;54.41
46778;BME280;32536;47.128;8.746;2023-03-18T05:12:25;91354.22;;;9.73;54.45
46778;BME280;32536;47.128;8.746;2023-03-18T05:14:52;91355.38;;;9.72;54.00
46778;BME280;32536;47.128;8.746;2023-03-18T05:17:19;91349.28;;;9.72;54.39
46778;BME280;32536;47.128;8.746;2023-03-18T05:19:47;91354.69;;;9.68;54.58
46778;BME280;32536;47.128;8.746;2023-03-18T05:22:18;91352.53;;;9.59;54.18
46778;BME280;32536;47.128;8.746;2023-03-18T05:24:46;91344.56;;;9.56;55.11
46778;BME280;32536;47.128;8.746;2023-03-18T05:27:15;91347.59;;;9.54;54.88
46778;BME280;32536;47.128;8.746;2023-03-18T05:29:43;91353.38;;;9.53;54.51
46778;BME280;32536;47.128;8.746;2023-03-18T05:32:10;91348.84;;;9.50;54.46
46778;BME280;32536;47.128;8.746;2023-03-18T05:34:38;91350.38;;;9.47;54.65
46778;BME280;32536;47.128;8.746;2023-03-18T05:37:08;91353.94;;;9.40;54.86
46778;BME280;32536;47.128;8.746;2023-03-18T05:39:36;91351.25;;;9.40;54.89
46778;BME280;32536;47.128;8.746;2023-03-18T05:42:03;91355.09;;;9.39;54.75
46778;BME280;32536;47.128;8.746;2023-03-18T05:44:31;91347.84;;;9.40;54.96
46778;BME280;32536;47.128;8.746;2023-03-18T05:46:58;91345.16;;;9.40;54.66
46778;BME280;32536;47.128;8.746;2023-03-18T05:49:25;91337.47;;;9.42;54.29
46778;BME280;32536;47.128;8.746;2023-03-18T05:51:52;91347.84;;;9.40;54.52
46778;BME280;32536;47.128;8.746;2023-03-18T05:54:19;91347.88;;;9.36;54.64
46778;BME280;32536;47.128;8.746;2023-03-18T05:56:46;91341.41;;;9.34;54.96
46778;BME280;32536;47.128;8.746;2023-03-18T05:59:14;91335.69;;;9.35;54.57
46778;BME280;32536;47.128;8.746;2023-03-18T06:01:41;91342.53;;;9.36;54.79
46778;BME280;32536;47.128;8.746;2023-03-18T06:04:09;91334.56;;;9.33;54.88
46778;BME280;32536;47.128;8.746;2023-03-18T06:06:36;91336.47;;;9.32;54.87
46778;BME280;32536;47.128;8.746;2023-03-18T06:09:09;91342.13;;;9.38;54.13
46778;BME280;32536;47.128;8.746;2023-03-18T06:11:37;91343.94;;;9.44;55.00
46778;BME280;32536;47.128;8.746;2023-03-18T06:14:08;91342.72;;;9.49;54.99
46778;BME280;32536;47.128;8.746;2023-03-18T06:16:35;91337.78;;;9.48;54.83
46778;BME280;32536;47.128;8.746;2023-03-18T06:19:02;91347.84;;;9.40;55.01
46778;BME280;32536;47.128;8.746;2023-03-18T06:21:30;91341.78;;;9.36;55.36
46778;BME280;32536;47.128;8.746;2023-03-18T06:23:58;91336.47;;;9.32;54.74
46778;BME280;32536;47.128;8.746;2023-03-18T06:26:26;91347.16;;;9.32;54.59
46778;BME280;32536;47.128;8.746;2023-03-18T06:28:53;91351.75;;;9.32;54.38
46778;BME280;32536;47.128;8.746;2023-03-18T06:31:19;91342.97;;;9.31;54.83
46778;BME280;32536;47.128;8.746;2023-03-18T06:33:47;91347.53;;;9.34;54.73
46778;BME280;32536;47.128;8.746;2023-03-18T06:36:13;91344.03;;;9.37;54.73
46778;BME280;32536;47.128;8.746;2023-03-18T06:38:42;91343.97;;;9.41;54.74
46778;BME280;32536;47.128;8.746;2023-03-18T06:41:10;91345.84;;;9.44;54.29
46778;BME280;32536;47.128;8.746;2023-03-18T06:43:37;91343.13;;;9.48;54.34
46778;BME280;32536;47.128;8.746;2023-03-18T06:46:03;91348.44;;;9.51;54.87
46778;BME280;32536;47.128;8.746;2023-03-18T06:48:30;91338.47;;;9.52;54.97
46778;BME280;32536;47.128;8.746;2023-03-18T06:50:57;91339.63;;;9.51;54.60
46778;BME280;32536;47.128;8.746;2023-03-18T06:53:24;91343.84;;;9.52;54.63
46778;BME280;32536;47.128;8.746;2023-03-18T06:55:52;91336.91;;;9.54;54.80
46778;BME280;32536;47.128;8.746;2023-03-18T06:58:21;91344.16;;;9.57;54.30
46778;BME280;32536;47.128;8.746;2023-03-18T07:00:49;91339.53;;;9.58;54.19
46778;BME280;32536;47.128;8.746;2023-03-18T07:03:16;91343.72;;;9.59;54.67
46778;BME280;32536;47.128;8.746;2023-03-18T07:05:43;91350.91;;;9.66;54.83
46778;BME280;32536;47.128;8.746;2023-03-18T07:08:09;91351.59;;;9.70;54.64
46778;BME280;32536;47.128;8.746;2023-03-18T07:10:36;91355.75;;;9.74;54.78
46778;BME280;32536;47.128;8.746;2023-03-18T07:13:03;91353.00;;;9.78;54.85
46778;BME280;32536;47.128;8.746;2023-03-18T07:15:30;91359.81;;;9.83;55.06
46778;BME280;32536;47.128;8.746;2023-03-18T07:17:57;91363.94;;;9.87;54.90
46778;BME280;32536;47.128;8.746;2023-03-18T07:20:25;91360.47;;;9.90;54.93
46778;BME280;32536;47.128;8.746;2023-03-18T07:22:53;91362.66;;;9.96;55.08
46778;BME280;32536;47.128;8.746;2023-03-18T07:25:20;91364.50;;;10.02;54.78
46778;BME280;32536;47.128;8.746;2023-03-18T07:27:46;91365.91;;;10.07;54.85
46778;BME280;32536;47.128;8.746;2023-03-18T07:30:14;91370.84;;;10.12;55.41
46778;BME280;32536;47.128;8.746;2023-03-18T07:33:09;91367.69;;;10.17;54.18
46778;BME280;32536;47.128;8.746;2023-03-18T07:35:36;91364.53;;;10.22;55.11
46778;BME280;32536;47.128;8.746;2023-03-18T07:38:06;91369.03;;;10.29;54.94
46778;BME280;32536;47.128;8.746;2023-03-18T07:40:34;91368.13;;;10.36;55.33
46778;BME280;32536;47.128;8.746;2023-03-18T07:43:06;91365.78;;;10.41;55.33
46778;BME280;32536;47.128;8.746;2023-03-18T07:45:32;91364.88;;;10.48;55.68
46778;BME280;32536;47.128;8.746;2023-03-18T07:47:59;91365.47;;;10.60;55.40
46778;BME280;32536;47.128;8.746;2023-03-18T07:50:26;91375.97;;;10.70;55.60
46778;BME280;32536;47.128;8.746;2023-03-18T07:52:53;91376.53;;;10.82;55.42
46778;BME280;32536;47.128;8.746;2023-03-18T07:55:19;91369.53;;;10.88;55.16
46778;BME280;32536;47.128;8.746;2023-03-18T07:57:46;91366.28;;;10.97;55.72
46778;BME280;32536;47.128;8.746;2023-03-18T08:00:14;91362.50;;;11.14;56.22
46778;BME280;32536;47.128;8.746;2023-03-18T08:02:41;91366.09;;;11.44;57.22
46778;BME280;32536;47.128;8.746;2023-03-18T08:05:08;91371.34;;;11.84;56.65
46778;BME280;32536;47.128;8.746;2023-03-18T08:07:36;91365.09;;;12.24;56.00
46778;BME280;32536;47.128;8.746;2023-03-18T08:10:03;91366.88;;;12.60;55.84
46778;BME280;32536;47.128;8.746;2023-03-18T08:12:30;91360.00;;;12.89;54.85
46778;BME280;32536;47.128;8.746;2023-03-18T08:14:57;91359.19;;;13.05;53.64
46778;BME280;32536;47.128;8.746;2023-03-18T08:17:24;91362.34;;;13.16;53.77
46778;BME280;32536;47.128;8.746;2023-03-18T08:19:51;91357.50;;;13.24;53.44
46778;BME280;32536;47.128;8.746;2023-03-18T08:22:18;91360.84;;;13.28;53.84
46778;BME280;32536;47.128;8.746;2023-03-18T08:24:45;91363.88;;;13.30;53.32
46778;BME280;32536;47.128;8.746;2023-03-18T08:27:12;91363.13;;;13.29;53.22
46778;BME280;32536;47.128;8.746;2023-03-18T08:29:39;91351.06;;;13.21;52.04
46778;BME280;32536;47.128;8.746;2023-03-18T08:32:06;91356.31;;;13.12;52.52
46778;BME280;32536;47.128;8.746;2023-03-18T08:34:32;91354.56;;;13.05;53.03
46778;BME280;32536;47.128;8.746;2023-03-18T08:37:00;91353.94;;;13.01;53.29
46778;BME280;32536;47.128;8.746;2023-03-18T08:39:27;91348.22;;;12.99;53.28
46778;BME280;32536;47.128;8.746;2023-03-18T08:41:54;91343.59;;;13.00;53.92
46778;BME280;32536;47.128;8.746;2023-03-18T08:44:21;91345.53;;;12.99;54.03
46778;BME280;32536;47.128;8.746;2023-03-18T08:46:47;91338.97;;;13.00;54.20
46778;BME280;32536;47.128;8.746;2023-03-18T08:49:14;91341.22;;;13.02;54.34
46778;BME280;32536;47.128;8.746;2023-03-18T08:51:41;91341.13;;;13.05;54.51
46778;BME280;32536;47.128;8.746;2023-03-18T08:54:08;91341.47;;;13.07;54.15
46778;BME280;32536;47.128;8.746;2023-03-18T08:56:34;91340.16;;;13.12;54.63
46778;BME280;32536;47.128;8.746;2023-03-18T08:59:01;91342.44;;;13.13;54.67
46778;BME280;32536;47.128;8.746;2023-03-18T09:01:28;91345.78;;;13.18;54.68
46778;BME280;32536;47.128;8.746;2023-03-18T09:03:54;91340.31;;;13.21;54.54
46778;BME280;32536;47.128;8.746;2023-03-18T09:06:23;91332.88;;;13.25;54.26
46778;BME280;32536;47.128;8.746;2023-03-18T09:08:50;91334.28;;;13.30;54.32
46778;BME280;32536;47.128;8.746;2023-03-18T09:11:16;91324.59;;;13.33;54.57
46778;BME280;32536;47.128;8.746;2023-03-18T09:13:43;91327.63;;;13.35;54.68
46778;BME280;32536;47.128;8.746;2023-03-18T09:16:10;91327.19;;;13.36;54.37
46778;BME280;32536;47.128;8.746;2023-03-18T09:18:37;91326.38;;;13.39;54.52
46778;BME280;32536;47.128;8.746;2023-03-18T09:21:05;91323.31;;;13.37;54.75
46778;BME280;32536;47.128;8.746;2023-03-18T09:23:32;91314.91;;;13.35;54.96
46778;BME280;32536;47.128;8.746;2023-03-18T09:26:00;91313.72;;;13.36;55.05
46778;BME280;32536;47.128;8.746;2023-03-18T09:28:27;91314.31;;;13.44;54.87
46778;BME280;32536;47.128;8.746;2023-03-18T09:30:54;91315.59;;;13.52;54.89
46778;BME280;32536;47.128;8.746;2023-03-18T09:33:22;91314.97;;;13.61;54.77
46778;BME280;32536;47.128;8.746;2023-03-18T09:35:49;91310.44;;;13.71;54.65
46778;BME280;32536;47.128;8.746;2023-03-18T09:38:18;91312.47;;;13.80;54.46
46778;BME280;32536;47.128;8.746;2023-03-18T09:52:38;91310.84;;;13.95;53.64
46778;BME280;32536;47.128;8.746;2023-03-18T09:55:41;91309.97;;;13.98;54.06
46778;BME280;32536;47.128;8.746;2023-03-18T09:58:23;91309.53;;;14.00;53.53
46778;BME280;32536;47.128;8.746;2023-03-18T10:01:02;91308.25;;;14.04;54.15
46778;BME280;32536;47.128;8.746;2023-03-18T10:03:42;91307.81;;;14.06;53.52
46778;BME280;32536;47.128;8.746;2023-03-18T10:06:17;91308.47;;;14.10;54.07
46778;BME280;32536;47.128;8.746;2023-03-18T10:08:57;91307.69;;;14.09;52.44
46778;BME280;32536;47.128;8.746;2023-03-18T10:11:41;91306.84;;;14.13;52.74
46778;BME280;32536;47.128;8.746;2023-03-18T10:26:09;91308.19;;;14.30;52.45
46778;BME280;32536;47.128;8.746;2023-03-18T10:32:11;91313.78;;;14.36;52.21
46778;BME280;32536;47.128;8.746;2023-03-18T10:34:48;91312.59;;;14.37;53.89
46778;BME280;32536;47.128;8.746;2023-03-18T10:40:18;91310.31;;;14.35;53.50
46778;BME280;32536;47.128;8.746;2023-03-18T10:42:47;91302.78;;;14.30;53.52
46778;BME280;32536;47.128;8.746;2023-03-18T10:45:27;91308.50;;;14.32;52.56
46778;BME280;32536;47.128;8.746;2023-03-18T10:50:36;91314.53;;;14.36;53.31
46778;BME280;32536;47.128;8.746;2023-03-18T10:53:33;91308.16;;;14.43;53.98
46778;BME280;32536;47.128;8.746;2023-03-18T10:56:09;91305.34;;;14.47;53.83
46778;BME280;32536;47.128;8.746;2023-03-18T10:58:40;91298.66;;;14.51;53.13
46778;BME280;32536;47.128;8.746;2023-03-18T11:01:09;91293.56;;;14.53;53.35
46778;BME280;32536;47.128;8.746;2023-03-18T11:03:51;91297.19;;;14.60;52.85
46778;BME280;32536;47.128;8.746;2023-03-18T11:06:40;91289.88;;;14.60;52.97
46778;BME280;32536;47.128;8.746;2023-03-18T11:09:17;91293.44;;;14.57;52.18
46778;BME280;32536;47.128;8.746;2023-03-18T11:11:49;91299.75;;;14.63;52.04
46778;BME280;32536;47.128;8.746;2023-03-18T11:14:21;91293.28;;;14.73;53.24
46778;BME280;32536;47.128;8.746;2023-03-18T11:17:05;91287.22;;;14.82;52.06
46778;BME280;32536;47.128;8.746;2023-03-18T11:19:49;91282.75;;;14.88;53.01
46778;BME280;32536;47.128;8.746;2023-03-18T11:22:26;91288.47;;;14.91;53.39
46778;BME280;32536;47.128;8.746;2023-03-18T11:25:02;91285.75;;;14.91;53.30
46778;BME280;32536;47.128;8.746;2023-03-18T11:27:44;91282.19;;;14.94;52.95
46778;BME280;32536;47.128;8.746;2023-03-18T11:35:53;91273.38;;;15.02;53.30
46778;BME280;32536;47.128;8.746;2023-03-18T11:38:29;91273.25;;;15.06;51.91
46778;BME280;32536;47.128;8.746;2023-03-18T11:41:08;91270.00;;;15.11;52.67
46778;BME280;32536;47.128;8.746;2023-03-18T11:43:53;91262.19;;;15.13;52.11
46778;BME280;32536;47.128;8.746;2023-03-18T11:46:23;91260.75;;;15.21;53.21
46778;BME280;32536;47.128;8.746;2023-03-18T11:48:52;91257.78;;;15.29;53.28
46778;BME280;32536;47.128;8.746;2023-03-18T12:06:02;91224.63;;;15.69;50.67
46778;BME280;32536;47.128;8.746;2023-03-18T12:11:29;91222.91;;;15.84;53.15
46778;BME280;32536;47.128;8.746;2023-03-18T12:26:06;91199.66;;;16.06;53.10
46778;BME280;32536;47.128;8.746;2023-03-18T12:43:12;91198.44;;;16.53;51.66
46778;BME280;32536;47.128;8.746;2023-03-18T12:46:19;91201.59;;;16.61;51.93
46778;BME280;32536;47.128;8.746;2023-03-18T12:49:07;91203.09;;;16.62;50.33
46778;BME280;32536;47.128;8.746;2023-03-18T12:54:42;91209.38;;;16.68;50.95
46778;BME280;32536;47.128;8.746;2023-03-18T12:57:39;91206.22;;;16.70;52.02
46778;BME280;32536;47.128;8.746;2023-03-18T13:00:19;91203.09;;;16.71;51.08
46778;BME280;32536;47.128;8.746;2023-03-18T13:05:35;91204.72;;;16.78;51.10
46778;BME280;32536;47.128;8.746;2023-03-18T13:08:50;91212.38;;;16.79;52.14
46778;BME280;32536;47.128;8.746;2023-03-18T13:11:43;91208.34;;;16.75;50.83
46778;BME280;32536;47.128;8.746;2023-03-18T13:17:39;91202.34;;;16.61;50.46
46778;BME280;32536;47.128;8.746;2023-03-18T13:20:10;91208.66;;;16.68;49.73
46778;BME280;32536;47.128;8.746;2023-03-18T13:22:46;91203.97;;;16.68;51.53
46778;BME280;32536;47.128;8.746;2023-03-18T13:25:47;91209.53;;;16.74;50.79
46778;BME280;32536;47.128;8.746;2023-03-18T13:42:50;91202.59;;;17.01;51.67
46778;BME280;32536;47.128;8.746;2023-03-18T13:48:27;91190.59;;;16.92;50.53
46778;BME280;32536;47.128;8.746;2023-03-18T13:50:59;91191.63;;;16.95;52.27
46778;BME280;32536;47.128;8.746;2023-03-18T13:53:46;91188.03;;;16.98;52.01
46778;BME280;32536;47.128;8.746;2023-03-18T14:02:33;91182.13;;;17.09;50.31
46778;BME280;32536;47.128;8.746;2023-03-18T14:08:34;91192.28;;;17.23;50.79
46778;BME280;32536;47.128;8.746;2023-03-18T14:19:26;91184.63;;;17.22;50.91
46778;BME280;32536;47.128;8.746;2023-03-18T14:22:12;91188.38;;;17.24;50.61
46778;BME280;32536;47.128;8.746;2023-03-18T14:24:44;91188.69;;;17.26;52.36
46778;BME280;32536;47.128;8.746;2023-03-18T14:27:17;91182.53;;;17.26;50.66
46778;BME280;32536;47.128;8.746;2023-03-18T14:29:46;91185.03;;;17.29;52.54
46778;BME280;32536;47.128;8.746;2023-03-18T14:35:03;91170.75;;;17.29;51.95
46778;BME280;32536;47.128;8.746;2023-03-18T14:40:48;91169.88;;;17.23;51.69
46778;BME280;32536;47.128;8.746;2023-03-18T14:43:27;91165.53;;;17.16;49.98
46778;BME280;32536;47.128;8.746;2023-03-18T14:46:32;91158.94;;;17.17;51.03
46778;BME280;32536;47.128;8.746;2023-03-18T14:49:31;91169.75;;;17.17;49.84
46778;BME280;32536;47.128;8.746;2023-03-18T14:52:06;91167.03;;;17.17;51.47
46778;BME280;32536;47.128;8.746;2023-03-18T14:54:42;91168.56;;;17.18;52.33
46778;BME280;32536;47.128;8.746;2023-03-18T14:57:10;91174.25;;;17.20;52.30
46778;BME280;32536;47.128;8.746;2023-03-18T14:59:38;91169.88;;;17.23;52.44
46778;BME280;32536;47.128;8.746;2023-03-18T15:02:10;91172.44;;;17.26;51.66
46778;BME280;32536;47.128;8.746;2023-03-18T15:04:51;91177.69;;;17.30;51.09
46778;BME280;32536;47.128;8.746;2023-03-18T15:07:27;91176.19;;;17.29;51.24
46778;BME280;32536;47.128;8.746;2023-03-18T15:10:02;91183.09;;;17.30;51.61
46778;BME280;32536;47.128;8.746;2023-03-18T15:12:33;91178.41;;;17.31;52.46
46778;BME280;32536;47.128;8.746;2023-03-18T15:15:00;91179.97;;;17.22;52.35
46778;BME280;32536;47.128;8.746;2023-03-18T15:17:26;91169.75;;;17.17;52.40
46778;BME280;32536;47.128;8.746;2023-03-18T15:19:57;91171.16;;;17.12;51.07
46778;BME280;32536;47.128;8.746;2023-03-18T15:22:28;91172.63;;;17.13;51.88
46778;BME280;32536;47.128;8.746;2023-03-18T15:25:01;91178.03;;;17.13;50.95
46778;BME280;32536;47.128;8.746;2023-03-18T15:27:31;91176.56;;;17.12;52.18
46778;BME280;32536;47.128;8.746;2023-03-18T15:30:01;91171.41;;;17.15;52.12
46778;BME280;32536;47.128;8.746;2023-03-18T15:32:32;91171.72;;;17.17;51.98
46778;BME280;32536;47.128;8.746;2023-03-18T15:37:38;91171.88;;;17.13;51.84
46778;BME280;32536;47.128;8.746;2023-03-18T15:45:35;91176.97;;;17.20;52.28
46778;BME280;32536;47.128;8.746;2023-03-18T15:48:11;91172.13;;;17.24;52.01
46778;BME280;32536;47.128;8.746;2023-03-18T15:50:55;91170.19;;;17.25;51.42